createdAt,value
2019-05-03T00:02:34.616Z,9.93
2019-05-03T00:05:24.788Z,9.98
2019-05-03T00:07:57.629Z,9.86
2019-05-03T00:10:27.989Z,9.91
2019-05-03T00:12:57.916Z,9.77
2019-05-03T00:15:46.426Z,9.67
2019-05-03T00:18:16.749Z,9.73
2019-05-03T00:20:46.636Z,9.74
2019-05-03T00:23:16.865Z,9.77
2019-05-03T00:25:47.010Z,9.55
2019-05-03T00:28:17.109Z,9.70
2019-05-03T00:30:47.649Z,9.73
2019-05-03T00:33:17.654Z,9.77
2019-05-03T00:36:06.545Z,9.61
2019-05-03T00:38:36.581Z,9.46
2019-05-03T00:41:06.565Z,9.37
2019-05-03T00:43:36.741Z,9.42
2019-05-03T00:46:06.988Z,9.43
2019-05-03T00:48:36.950Z,9.62
2019-05-03T00:51:06.912Z,9.56
2019-05-03T00:53:36.846Z,9.46
2019-05-03T00:56:06.866Z,9.37
2019-05-03T00:58:50.409Z,9.32
2019-05-03T01:01:22.405Z,9.42
2019-05-03T01:03:52.814Z,9.42
2019-05-03T01:06:23.394Z,9.55
2019-05-03T01:08:53.732Z,9.50
2019-05-03T01:11:23.696Z,9.45
2019-05-03T01:13:54.030Z,9.39
2019-05-03T01:16:25.157Z,9.38
2019-05-03T01:18:55.162Z,9.51
2019-05-03T01:21:25.480Z,9.50
2019-05-03T01:23:55.402Z,9.63
2019-05-03T01:26:25.271Z,9.80
2019-05-03T01:28:55.188Z,9.81
2019-05-03T01:31:25.090Z,9.65
2019-05-03T01:33:55.077Z,9.40
2019-05-03T01:36:25.055Z,9.44
2019-05-03T01:38:55.036Z,9.51
2019-05-03T01:41:25.149Z,9.68
2019-05-03T01:43:55.312Z,9.77
2019-05-03T01:46:25.232Z,9.68
2019-05-03T01:49:04.195Z,9.61
2019-05-03T01:51:45.434Z,9.46
2019-05-03T01:54:15.546Z,9.34
2019-05-03T01:56:55.981Z,9.34
2019-05-03T01:59:17.319Z,9.39
2019-05-03T02:01:56.884Z,9.35
2019-05-03T02:04:49.067Z,9.46
2019-05-03T02:07:18.956Z,9.42
2019-05-03T02:09:48.858Z,9.35
2019-05-03T02:12:19.323Z,9.31
2019-05-03T02:14:49.405Z,9.30
2019-05-03T02:17:19.309Z,9.25
2019-05-03T02:19:49.231Z,9.18
2019-05-03T02:22:19.124Z,9.21
2019-05-03T02:24:49.051Z,9.24
2019-05-03T02:27:18.940Z,9.36
2019-05-03T02:29:48.868Z,9.37
2019-05-03T02:32:18.783Z,9.37
2019-05-03T02:34:48.715Z,9.45
2019-05-03T02:37:18.607Z,9.58
2019-05-03T02:39:55.900Z,9.42
2019-05-03T02:42:26.759Z,9.35
2019-05-03T02:44:57.908Z,9.29
2019-05-03T02:47:39.506Z,9.23
2019-05-03T02:50:16.467Z,9.22
2019-05-03T02:52:45.722Z,9.15
2019-05-03T02:55:16.406Z,9.14
2019-05-03T02:57:46.931Z,9.16
2019-05-03T03:00:21.930Z,9.21
2019-05-03T03:02:52.184Z,9.23
2019-05-03T03:05:24.930Z,9.25
2019-05-03T03:07:55.895Z,9.27
2019-05-03T03:10:27.966Z,9.27
2019-05-03T03:13:00.530Z,9.24
2019-05-03T03:15:32.740Z,9.25
2019-05-03T03:18:02.878Z,9.26
2019-05-03T03:20:35.840Z,9.18
2019-05-03T03:23:06.801Z,9.18
2019-05-03T03:25:40.329Z,9.18
2019-05-03T03:28:15.796Z,9.18
2019-05-03T03:31:28.281Z,9.22
2019-05-03T03:34:07.639Z,9.23
2019-05-03T03:36:58.411Z,9.25
2019-05-03T03:39:17.315Z,9.27
2019-05-03T03:41:49.209Z,9.26
2019-05-03T03:44:21.652Z,9.26
2019-05-03T03:46:52.006Z,9.23
2019-05-03T03:49:22.862Z,9.25
2019-05-03T03:51:56.112Z,9.22
2019-05-03T03:54:26.032Z,9.27
2019-05-03T03:57:03.854Z,9.22
2019-05-03T03:59:28.591Z,9.19
2019-05-03T04:01:58.865Z,9.15
2019-05-03T04:04:29.434Z,9.17
2019-05-03T04:07:01.406Z,9.17
2019-05-03T04:09:31.975Z,9.17
2019-05-03T04:12:02.607Z,9.31
2019-05-03T04:14:40.171Z,9.23
2019-05-03T04:17:29.253Z,9.23
2019-05-03T04:19:59.745Z,9.18
2019-05-03T04:22:29.785Z,9.21
2019-05-03T04:24:59.831Z,9.17
2019-05-03T04:27:29.841Z,9.15
2019-05-03T04:30:00.244Z,9.10
2019-05-03T04:32:30.458Z,9.07
2019-05-03T04:35:00.629Z,9.06
2019-05-03T04:37:30.764Z,9.07
2019-05-03T04:40:00.781Z,9.06
2019-05-03T04:42:30.833Z,9.05
2019-05-03T04:45:00.724Z,9.13
2019-05-03T04:47:30.621Z,9.20
2019-05-03T04:50:00.560Z,9.23
2019-05-03T04:52:30.517Z,9.20
2019-05-03T04:55:01.072Z,9.24
2019-05-03T04:57:42.024Z,9.32
2019-05-03T05:00:06.003Z,9.29
2019-05-03T05:02:35.617Z,9.34
2019-05-03T05:05:06.339Z,9.26
2019-05-03T05:07:45.813Z,9.26
2019-05-03T05:10:16.912Z,9.31
2019-05-03T05:12:46.921Z,9.33
2019-05-03T05:15:18.103Z,9.46
2019-05-03T05:18:01.991Z,9.52
2019-05-03T05:20:55.500Z,9.46
2019-05-03T05:23:26.118Z,9.50
2019-05-03T05:26:05.406Z,9.51
2019-05-03T05:28:44.738Z,9.53
2019-05-03T05:31:15.242Z,9.60
2019-05-03T05:33:45.231Z,9.61
2019-05-03T05:36:15.408Z,9.53
2019-05-03T05:38:45.648Z,9.51
2019-05-03T05:41:15.741Z,9.58
2019-05-03T05:43:45.684Z,9.66
2019-05-03T05:46:16.770Z,9.72
2019-05-03T05:48:50.683Z,9.66
2019-05-03T05:51:20.706Z,9.65
2019-05-03T05:53:50.699Z,9.86
2019-05-03T05:56:44.477Z,9.92
2019-05-03T05:59:24.786Z,9.73
2019-05-03T06:01:58.813Z,9.67
2019-05-03T06:04:28.804Z,9.51
2019-05-03T06:07:35.547Z,9.36
2019-05-03T06:10:14.114Z,9.11
2019-05-03T06:12:58.558Z,8.82
2019-05-03T06:15:41.740Z,8.72
2019-05-03T06:18:17.582Z,8.58
2019-05-03T06:21:12.578Z,8.41
2019-05-03T06:23:48.449Z,8.33
2019-05-03T06:26:36.173Z,8.33
2019-05-03T06:29:06.392Z,8.25
2019-05-03T06:31:49.073Z,8.25
2019-05-03T06:34:19.032Z,8.25
2019-05-03T06:36:51.492Z,8.31
2019-05-03T06:39:21.479Z,8.36
2019-05-03T06:41:51.413Z,8.27
2019-05-03T06:44:24.842Z,8.35
2019-05-03T06:46:55.118Z,8.40
2019-05-03T06:49:25.558Z,8.38
2019-05-03T06:51:55.549Z,8.26
2019-05-03T06:54:29.757Z,8.15
2019-05-03T06:57:00.093Z,8.05
2019-05-03T06:59:40.727Z,8.11
2019-05-03T07:02:44.876Z,8.33
2019-05-03T07:05:26.563Z,8.44
2019-05-03T07:08:21.335Z,8.52
2019-05-03T07:10:54.937Z,8.60
2019-05-03T07:13:25.441Z,8.78
2019-05-03T07:15:56.016Z,9.15
2019-05-03T07:18:26.031Z,9.45
2019-05-03T07:20:57.857Z,9.61
2019-05-03T07:23:27.835Z,9.96
2019-05-03T07:25:58.288Z,10.01
2019-05-03T07:28:28.273Z,10.44
2019-05-03T07:30:58.205Z,10.46
2019-05-03T07:33:34.726Z,9.83
2019-05-03T07:36:05.618Z,9.50
2019-05-03T07:38:35.875Z,9.04
2019-05-03T07:41:05.898Z,9.16
2019-05-03T07:43:36.171Z,9.11
2019-05-03T07:46:06.587Z,8.89
2019-05-03T07:48:36.591Z,8.86
2019-05-03T07:51:06.834Z,9.03
2019-05-03T07:53:36.755Z,8.72
2019-05-03T07:56:14.933Z,8.59
2019-05-03T07:58:59.298Z,8.65
2019-05-03T08:01:26.378Z,8.59
2019-05-03T08:03:56.426Z,8.62
2019-05-03T08:06:26.388Z,8.66
2019-05-03T08:08:56.511Z,8.85
2019-05-03T08:11:26.535Z,9.28
2019-05-03T08:13:57.095Z,9.62
2019-05-03T08:16:27.015Z,9.82
2019-05-03T08:18:56.913Z,9.87
2019-05-03T08:21:27.088Z,9.80
2019-05-03T08:23:57.049Z,9.77
2019-05-03T08:26:26.998Z,10.04
2019-05-03T08:28:56.918Z,10.29
2019-05-03T08:31:49.097Z,10.06
2019-05-03T08:34:30.937Z,10.45
2019-05-03T08:37:19.887Z,11.10
2019-05-03T08:39:49.787Z,11.77
2019-05-03T08:42:25.358Z,12.19
2019-05-03T08:44:55.540Z,12.34
2019-05-03T08:47:25.673Z,12.06
2019-05-03T08:49:56.281Z,12.13
2019-05-03T08:52:26.250Z,12.51
2019-05-03T08:54:56.161Z,12.71
2019-05-03T08:57:26.194Z,13.56
2019-05-03T08:59:56.086Z,14.19
2019-05-03T09:02:26.253Z,13.33
2019-05-03T09:04:56.294Z,13.69
2019-05-03T09:07:26.229Z,12.59
2019-05-03T09:10:01.281Z,12.21
2019-05-03T09:12:49.060Z,13.05
2019-05-03T09:15:21.587Z,14.00
2019-05-03T09:17:55.112Z,14.64
2019-05-03T09:20:25.251Z,13.93
2019-05-03T09:22:55.218Z,15.40
2019-05-03T09:25:25.544Z,16.14
2019-05-03T09:27:55.572Z,16.40
2019-05-03T09:30:25.603Z,18.78
2019-05-03T09:32:55.871Z,19.54
2019-05-03T09:35:32.048Z,17.72
2019-05-03T09:37:57.960Z,15.76
2019-05-03T09:40:27.850Z,15.21
2019-05-03T09:42:57.778Z,15.26
2019-05-03T09:45:27.821Z,15.78
2019-05-03T09:47:57.749Z,16.10
2019-05-03T09:50:27.773Z,16.21
2019-05-03T09:52:57.762Z,15.10
2019-05-03T09:55:37.575Z,16.35
2019-05-03T09:58:07.899Z,16.29
2019-05-03T10:00:38.013Z,17.21
2019-05-03T10:03:08.037Z,18.29
2019-05-03T10:05:38.079Z,18.90
2019-05-03T10:08:08.068Z,18.44
2019-05-03T10:10:57.609Z,18.62
2019-05-03T10:13:27.541Z,17.64
2019-05-03T10:15:57.439Z,18.87
2019-05-03T10:18:27.721Z,19.03
2019-05-03T10:20:57.703Z,17.39
2019-05-03T10:23:40.412Z,15.89
2019-05-03T10:26:10.895Z,14.97
2019-05-03T10:28:40.957Z,15.32
2019-05-03T10:31:11.092Z,14.21
2019-05-03T10:33:55.620Z,14.16
2019-05-03T10:36:25.569Z,15.26
2019-05-03T10:38:55.767Z,16.38
2019-05-03T10:41:25.800Z,16.72
2019-05-03T10:43:55.888Z,15.47
2019-05-03T10:46:25.784Z,15.10
2019-05-03T10:48:56.064Z,13.54
2019-05-03T10:51:28.449Z,13.66
2019-05-03T10:54:00.087Z,13.41
2019-05-03T10:56:50.655Z,13.96
2019-05-03T10:59:21.910Z,15.15
2019-05-03T11:02:24.841Z,17.19
2019-05-03T11:04:54.971Z,18.69
2019-05-03T11:07:25.621Z,18.63
2019-05-03T11:09:55.819Z,19.92
2019-05-03T11:12:27.210Z,19.93
2019-05-03T11:14:57.269Z,18.45
2019-05-03T11:17:27.220Z,17.27
2019-05-03T11:19:57.225Z,16.99
2019-05-03T11:22:27.137Z,16.22
2019-05-03T11:24:57.078Z,15.01
2019-05-03T11:27:45.894Z,13.98
2019-05-03T11:30:17.367Z,14.12
2019-05-03T11:32:52.829Z,14.13
2019-05-03T11:35:35.098Z,13.55
2019-05-03T11:38:11.540Z,13.95
2019-05-03T11:40:41.492Z,16.31
2019-05-03T11:43:11.466Z,21.68
2019-05-03T11:45:41.460Z,23.48
2019-05-03T11:48:11.371Z,26.34
2019-05-03T11:50:41.310Z,24.64
2019-05-03T11:53:11.798Z,21.69
2019-05-03T11:55:41.745Z,18.32
2019-05-03T11:58:19.001Z,17.58
2019-05-03T12:01:08.187Z,17.30
2019-05-03T12:03:31.455Z,16.52
2019-05-03T12:06:01.469Z,15.60
2019-05-03T12:08:31.465Z,15.65
2019-05-03T12:11:01.847Z,16.36
2019-05-03T12:13:32.454Z,16.82
2019-05-03T12:16:14.261Z,15.82
2019-05-03T12:18:49.323Z,15.40
2019-05-03T12:21:08.960Z,15.02
2019-05-03T12:23:39.825Z,15.00
2019-05-03T12:26:13.469Z,14.31
2019-05-03T12:28:41.911Z,14.28
2019-05-03T12:31:25.442Z,13.68
2019-05-03T12:33:45.932Z,13.83
2019-05-03T12:36:15.709Z,13.67
2019-05-03T12:38:45.629Z,13.89
2019-05-03T12:41:15.587Z,13.79
2019-05-03T12:43:45.500Z,14.49
2019-05-03T12:46:16.860Z,15.73
2019-05-03T12:48:48.471Z,15.95
2019-05-03T12:51:18.504Z,15.82
2019-05-03T12:53:49.091Z,17.31
2019-05-03T12:56:23.867Z,19.94
2019-05-03T12:59:02.416Z,21.77
2019-05-03T13:02:09.452Z,20.03
2019-05-03T13:04:39.962Z,19.83
2019-05-03T13:07:25.539Z,16.67
2019-05-03T13:09:55.487Z,16.61
2019-05-03T13:12:27.224Z,16.76
2019-05-03T13:14:57.121Z,19.33
2019-05-03T13:17:36.896Z,23.47
2019-05-03T13:20:09.778Z,24.19
2019-05-03T13:22:39.872Z,18.51
2019-05-03T13:25:11.759Z,18.53
2019-05-03T13:27:41.751Z,17.25
2019-05-03T13:30:15.836Z,17.39
2019-05-03T13:32:45.879Z,18.01
2019-05-03T13:35:16.116Z,18.63
2019-05-03T13:37:46.838Z,19.91
2019-05-03T13:40:16.988Z,19.10
2019-05-03T13:42:57.655Z,21.28
2019-05-03T13:45:19.243Z,21.74
2019-05-03T13:47:49.259Z,23.13
2019-05-03T13:50:19.352Z,20.80
2019-05-03T13:52:49.512Z,20.47
2019-05-03T13:55:19.532Z,22.12
2019-05-03T13:57:49.541Z,21.15
2019-05-03T14:00:19.695Z,18.31
2019-05-03T14:02:49.726Z,18.08
2019-05-03T14:05:19.704Z,17.60
2019-05-03T14:07:49.620Z,16.21
2019-05-03T14:10:20.020Z,16.49
2019-05-03T14:12:49.963Z,17.04
2019-05-03T14:15:20.128Z,17.10
2019-05-03T14:17:50.054Z,17.42
2019-05-03T14:20:29.934Z,17.95
2019-05-03T14:22:59.893Z,18.91
2019-05-03T14:25:29.933Z,17.19
2019-05-03T14:28:00.122Z,17.20
2019-05-03T14:30:30.341Z,16.94
2019-05-03T14:33:00.289Z,15.96
2019-05-03T14:35:30.205Z,15.19
2019-05-03T14:38:00.201Z,14.97
2019-05-03T14:40:30.209Z,14.81
2019-05-03T14:43:00.144Z,14.72
2019-05-03T14:45:30.068Z,15.11
2019-05-03T14:48:00.194Z,15.21
2019-05-03T14:50:31.069Z,17.40
2019-05-03T14:53:01.190Z,19.24
2019-05-03T14:55:45.342Z,22.43
2019-05-03T14:58:35.297Z,22.41
2019-05-03T15:01:12.082Z,21.83
2019-05-03T15:03:42.059Z,20.79
2019-05-03T15:06:12.033Z,19.91
2019-05-03T15:08:42.269Z,18.73
2019-05-03T15:11:12.186Z,17.59
2019-05-03T15:13:42.147Z,16.65
2019-05-03T15:16:14.430Z,16.62
2019-05-03T15:18:45.380Z,16.56
2019-05-03T15:21:15.315Z,15.55
2019-05-03T15:23:45.449Z,15.27
2019-05-03T15:26:15.347Z,15.13
2019-05-03T15:28:45.437Z,14.85
2019-05-03T15:31:15.399Z,14.77
2019-05-03T15:33:45.329Z,14.30
2019-05-03T15:36:15.526Z,14.46
2019-05-03T15:38:46.139Z,14.74
2019-05-03T15:41:16.063Z,14.63
2019-05-03T15:43:54.723Z,14.55
2019-05-03T15:46:45.651Z,14.99
2019-05-03T15:49:15.941Z,14.89
2019-05-03T15:51:45.846Z,14.60
2019-05-03T15:54:15.849Z,14.56
2019-05-03T15:56:45.820Z,13.87
2019-05-03T15:59:15.738Z,13.97
2019-05-03T16:01:46.381Z,14.05
2019-05-03T16:04:16.484Z,13.90
2019-05-03T16:06:46.386Z,14.07
2019-05-03T16:09:16.503Z,13.83
2019-05-03T16:11:46.397Z,13.60
2019-05-03T16:14:16.316Z,13.41
2019-05-03T16:16:46.218Z,13.35
2019-05-03T16:19:16.199Z,13.34
2019-05-03T16:21:46.142Z,13.41
2019-05-03T16:24:16.126Z,13.60
2019-05-03T16:27:05.018Z,13.47
2019-05-03T16:29:35.335Z,13.31
2019-05-03T16:32:05.874Z,13.49
2019-05-03T16:34:35.851Z,13.79
2019-05-03T16:37:05.865Z,14.34
2019-05-03T16:39:36.412Z,15.30
2019-05-03T16:42:06.932Z,15.36
2019-05-03T16:44:37.057Z,14.53
2019-05-03T16:47:07.310Z,13.75
2019-05-03T16:49:37.315Z,13.39
2019-05-03T16:52:07.363Z,13.12
2019-05-03T16:54:37.291Z,12.80
2019-05-03T16:57:07.257Z,12.67
2019-05-03T16:59:37.375Z,12.27
2019-05-03T17:02:07.427Z,12.17
2019-05-03T17:04:45.075Z,12.11
2019-05-03T17:07:35.382Z,12.23
2019-05-03T17:10:15.353Z,12.13
2019-05-03T17:12:52.264Z,12.01
2019-05-03T17:15:22.390Z,12.11
2019-05-03T17:17:52.485Z,12.07
2019-05-03T17:20:22.558Z,12.09
2019-05-03T17:22:52.454Z,12.04
2019-05-03T17:25:24.406Z,12.05
2019-05-03T17:27:54.419Z,12.18
2019-05-03T17:30:32.613Z,12.28
2019-05-03T17:32:56.203Z,12.51
2019-05-03T17:35:26.142Z,12.76
2019-05-03T17:37:56.084Z,12.71
2019-05-03T17:40:44.324Z,12.69
2019-05-03T17:43:22.317Z,12.32
2019-05-03T17:45:54.974Z,12.38
2019-05-03T17:48:25.143Z,12.51
2019-05-03T17:50:55.223Z,12.46
2019-05-03T17:53:47.234Z,12.46
2019-05-03T17:56:28.478Z,12.31
2019-05-03T17:59:01.709Z,12.37
2019-05-03T18:01:49.216Z,12.20
2019-05-03T18:04:50.047Z,11.96
2019-05-03T18:07:37.019Z,11.75
2019-05-03T18:10:07.827Z,11.63
2019-05-03T18:12:37.772Z,11.46
2019-05-03T18:15:08.469Z,11.34
2019-05-03T18:17:39.071Z,11.30
2019-05-03T18:20:09.144Z,11.26
2019-05-03T18:22:39.036Z,11.18
2019-05-03T18:25:09.372Z,11.11
2019-05-03T18:27:39.261Z,11.06
2019-05-03T18:30:09.922Z,11.05
2019-05-03T18:32:39.843Z,10.95
2019-05-03T18:35:09.933Z,11.27
2019-05-03T18:37:39.838Z,11.16
2019-05-03T18:40:10.179Z,11.18
2019-05-03T18:42:45.211Z,11.04
2019-05-03T18:45:20.593Z,10.83
2019-05-03T18:47:50.481Z,10.72
2019-05-03T18:50:20.576Z,10.60
2019-05-03T18:52:50.485Z,10.55
2019-05-03T18:55:20.562Z,10.35
2019-05-03T18:57:50.601Z,10.14
2019-05-03T19:00:21.800Z,9.95
2019-05-03T19:02:51.753Z,9.66
2019-05-03T19:05:24.309Z,9.71
2019-05-03T19:08:04.565Z,9.79
2019-05-03T19:10:44.630Z,9.72
2019-05-03T19:13:37.263Z,9.52
2019-05-03T19:16:20.232Z,9.18
2019-05-03T19:18:50.132Z,8.88
2019-05-03T19:21:20.083Z,8.83
2019-05-03T19:23:50.015Z,8.84
2019-05-03T19:26:20.515Z,8.84
2019-05-03T19:28:50.504Z,8.68
2019-05-03T19:31:20.795Z,8.62
2019-05-03T19:33:50.877Z,8.66
2019-05-03T19:36:20.792Z,8.62
2019-05-03T19:38:51.429Z,8.73
2019-05-03T19:41:21.368Z,8.82
2019-05-03T19:43:51.272Z,9.05
2019-05-03T19:46:21.193Z,9.27
2019-05-03T19:48:51.139Z,9.37
2019-05-03T19:51:21.013Z,9.32
2019-05-03T19:53:55.098Z,9.28
2019-05-03T19:56:25.888Z,9.20
2019-05-03T19:59:04.661Z,9.17
2019-05-03T20:01:51.454Z,9.29
2019-05-03T20:04:40.479Z,9.30
2019-05-03T20:07:26.268Z,9.11
2019-05-03T20:09:56.354Z,9.08
2019-05-03T20:12:26.894Z,9.17
2019-05-03T20:14:56.923Z,9.08
2019-05-03T20:17:26.831Z,9.11
2019-05-03T20:19:56.800Z,9.24
2019-05-03T20:22:27.050Z,9.38
2019-05-03T20:24:57.071Z,9.46
2019-05-03T20:27:27.032Z,9.51
2019-05-03T20:29:57.194Z,9.50
2019-05-03T20:32:27.095Z,9.49
2019-05-03T20:34:57.107Z,9.47
2019-05-03T20:37:27.675Z,9.52
2019-05-03T20:39:57.968Z,9.51
2019-05-03T20:42:45.215Z,9.45
2019-05-03T20:45:22.361Z,9.33
2019-05-03T20:47:55.355Z,9.07
2019-05-03T20:50:25.272Z,8.87
2019-05-03T20:52:55.167Z,8.84
2019-05-03T20:55:25.664Z,8.85
2019-05-03T20:57:55.647Z,8.85
2019-05-03T21:00:27.138Z,8.89
2019-05-03T21:02:57.539Z,8.83
2019-05-03T21:05:31.739Z,8.72
2019-05-03T21:07:59.315Z,8.71
2019-05-03T21:10:29.551Z,8.77
2019-05-03T21:12:59.440Z,8.98
2019-05-03T21:15:41.772Z,9.08
2019-05-03T21:18:24.383Z,9.11
2019-05-03T21:21:14.945Z,9.18
2019-05-03T21:23:49.368Z,9.14
2019-05-03T21:26:19.407Z,9.09
2019-05-03T21:28:49.382Z,9.10
2019-05-03T21:31:19.375Z,9.09
2019-05-03T21:33:49.279Z,9.06
2019-05-03T21:36:19.408Z,9.08
2019-05-03T21:38:49.498Z,9.13
2019-05-03T21:41:19.437Z,9.13
2019-05-03T21:43:49.321Z,8.90
2019-05-03T21:46:34.971Z,8.99
2019-05-03T21:49:10.117Z,9.00
2019-05-03T21:51:40.117Z,8.95
2019-05-03T21:54:10.037Z,8.99
2019-05-03T21:56:39.985Z,9.03
2019-05-03T21:59:09.859Z,9.03
2019-05-03T22:01:45.425Z,9.08
2019-05-03T22:04:15.629Z,9.00
2019-05-03T22:06:45.693Z,8.79
2019-05-03T22:09:15.578Z,8.84
2019-05-03T22:11:45.518Z,8.73
2019-05-03T22:14:21.512Z,8.88
2019-05-03T22:17:14.874Z,8.83
2019-05-03T22:19:46.439Z,8.89
2019-05-03T22:22:55.425Z,8.83
2019-05-03T22:25:28.542Z,8.75
2019-05-03T22:27:58.626Z,8.69
2019-05-03T22:30:28.519Z,8.69
2019-05-03T22:32:58.438Z,8.66
2019-05-03T22:35:28.397Z,8.51
2019-05-03T22:37:58.489Z,8.35
2019-05-03T22:40:28.449Z,8.14
2019-05-03T22:42:58.378Z,8.04
2019-05-03T22:45:28.269Z,7.98
2019-05-03T22:47:58.188Z,7.94
2019-05-03T22:50:28.238Z,8.01
2019-05-03T22:52:58.261Z,7.99
2019-05-03T22:55:28.204Z,8.09
2019-05-03T22:57:58.171Z,8.03
2019-05-03T23:00:28.250Z,8.17
2019-05-03T23:02:58.174Z,8.23
2019-05-03T23:05:28.088Z,8.22
2019-05-03T23:07:58.936Z,8.13
2019-05-03T23:10:29.073Z,8.10
2019-05-03T23:12:59.010Z,8.16
2019-05-03T23:15:29.258Z,8.06
2019-05-03T23:17:59.198Z,8.04
2019-05-03T23:20:37.042Z,7.96
2019-05-03T23:23:07.037Z,7.90
2019-05-03T23:25:36.937Z,7.95
2019-05-03T23:28:06.864Z,7.83
2019-05-03T23:30:36.995Z,7.79
2019-05-03T23:33:07.232Z,7.98
2019-05-03T23:35:37.368Z,8.08
2019-05-03T23:38:07.327Z,8.13
2019-05-03T23:40:37.452Z,8.17
2019-05-03T23:43:07.394Z,8.06
2019-05-03T23:45:37.537Z,8.02
2019-05-03T23:48:07.928Z,8.06
2019-05-03T23:50:37.831Z,8.19
2019-05-03T23:53:07.784Z,8.35
2019-05-03T23:55:46.362Z,8.42
2019-05-03T23:58:16.350Z,8.43
